KDSM/DSM METAR and TAF weather

Enter ICAO airport designator
Station Type Date Time Source
KDSM METAR 2021/06/24 05:54 UTC NOAA

KDSM 240554Z 17009KT 10SM SCT250 OVC300 23/19 A2982 RMK AO2 SLP090 T02330189 10289 20233 403060167 58002


Station Type Date Time Source
KDSM Decoded METAR 2021/06/24 05:54 UTC NOAA

DES MOINES INTERNATIONAL, IA, United States (KDSM) 41-32N 93-40W 295M
Jun 24, 2021 - 01:54 AM EDT / 2021.06.24 0554 UTC
Wind: from the S (170 degrees) at 10 MPH (9 KT):0
Visibility: 10 mile(s):0
Sky conditions: overcast
Temperature: 73.9 F (23.3 C)
Dew Point: 66.0 F (18.9 C)
Relative Humidity: 76%
Pressure (altimeter): 29.82 in. Hg (1009 hPa)
Pressure tendency: 0.01 inches (0.2 hPa) lower than three hours ago
ob: KDSM 240554Z 17009KT 10SM SCT250 OVC300 23/19 A2982 RMK AO2 SLP090 T02330189 10289 20233 403060167 58002
cycle: 6

Station Type Date Time Source
KDSM TAF 2021/06/24 06:33 UTC NOAA

TAF KDSM 240530Z 2406/2506 17010KT P6SM OVC250
FM241100 18009G17KT P6SM VCTS SCT035CB BKN080
FM241400 17009G18KT 6SM -TSRA BR OVC040CB
FM241800 19009KT P6SM BKN070
FM250200 20010KT P6SM VCTS BKN060CB

Example: see airport list